sensor_id;sensor_type;location;lat;lon;timestamp;P1;durP1;ratioP1;P2;durP2;ratioP2
29538;SDS011;16482;51.046;4.498;2023-04-25T00:00:09;10.38;;;3.63;;
29538;SDS011;16482;51.046;4.498;2023-04-25T00:02:37;7.05;;;3.13;;
29538;SDS011;16482;51.046;4.498;2023-04-25T00:05:06;7.97;;;3.35;;
29538;SDS011;16482;51.046;4.498;2023-04-25T00:07:41;6.45;;;3.65;;
29538;SDS011;16482;51.046;4.498;2023-04-25T00:10:08;8.13;;;4.00;;
29538;SDS011;16482;51.046;4.498;2023-04-25T00:12:38;7.82;;;3.80;;
29538;SDS011;16482;51.046;4.498;2023-04-25T00:15:08;7.95;;;4.05;;
29538;SDS011;16482;51.046;4.498;2023-04-25T00:17:37;7.97;;;3.55;;
29538;SDS011;16482;51.046;4.498;2023-04-25T00:20:12;9.20;;;3.65;;
29538;SDS011;16482;51.046;4.498;2023-04-25T00:22:41;7.60;;;3.60;;
29538;SDS011;16482;51.046;4.498;2023-04-25T00:25:07;7.20;;;3.40;;
29538;SDS011;16482;51.046;4.498;2023-04-25T00:27:41;6.60;;;3.88;;
29538;SDS011;16482;51.046;4.498;2023-04-25T00:30:07;9.50;;;4.07;;
29538;SDS011;16482;51.046;4.498;2023-04-25T00:32:42;6.82;;;3.55;;
29538;SDS011;16482;51.046;4.498;2023-04-25T00:35:08;10.20;;;4.50;;
29538;SDS011;16482;51.046;4.498;2023-04-25T00:37:38;9.45;;;3.88;;
29538;SDS011;16482;51.046;4.498;2023-04-25T00:40:06;6.80;;;3.63;;
29538;SDS011;16482;51.046;4.498;2023-04-25T00:42:40;7.60;;;3.85;;
29538;SDS011;16482;51.046;4.498;2023-04-25T00:45:07;6.93;;;3.25;;
29538;SDS011;16482;51.046;4.498;2023-04-25T00:47:40;6.82;;;3.63;;
29538;SDS011;16482;51.046;4.498;2023-04-25T00:50:06;8.13;;;3.78;;
29538;SDS011;16482;51.046;4.498;2023-04-25T00:52:41;6.22;;;3.10;;
29538;SDS011;16482;51.046;4.498;2023-04-25T00:55:10;6.32;;;3.65;;
29538;SDS011;16482;51.046;4.498;2023-04-25T00:57:37;8.85;;;3.65;;
29538;SDS011;16482;51.046;4.498;2023-04-25T01:00:07;8.43;;;3.70;;
29538;SDS011;16482;51.046;4.498;2023-04-25T01:02:43;9.30;;;4.05;;
29538;SDS011;16482;51.046;4.498;2023-04-25T01:05:10;8.50;;;3.58;;
29538;SDS011;16482;51.046;4.498;2023-04-25T01:07:39;7.50;;;3.63;;
29538;SDS011;16482;51.046;4.498;2023-04-25T01:10:08;7.45;;;3.42;;
29538;SDS011;16482;51.046;4.498;2023-04-25T01:12:43;8.73;;;3.90;;
29538;SDS011;16482;51.046;4.498;2023-04-25T01:15:09;10.00;;;4.25;;
29538;SDS011;16482;51.046;4.498;2023-04-25T01:17:35;8.80;;;3.65;;
29538;SDS011;16482;51.046;4.498;2023-04-25T01:20:09;8.35;;;4.15;;
29538;SDS011;16482;51.046;4.498;2023-04-25T01:22:36;7.82;;;3.45;;
29538;SDS011;16482;51.046;4.498;2023-04-25T01:25:06;10.00;;;3.88;;
29538;SDS011;16482;51.046;4.498;2023-04-25T01:27:38;8.30;;;3.50;;
29538;SDS011;16482;51.046;4.498;2023-04-25T01:30:07;6.28;;;3.65;;
29538;SDS011;16482;51.046;4.498;2023-04-25T01:32:43;9.43;;;3.70;;
29538;SDS011;16482;51.046;4.498;2023-04-25T01:35:12;9.77;;;3.55;;
29538;SDS011;16482;51.046;4.498;2023-04-25T01:37:44;6.55;;;3.10;;
29538;SDS011;16482;51.046;4.498;2023-04-25T01:40:10;8.68;;;3.70;;
29538;SDS011;16482;51.046;4.498;2023-04-25T01:42:39;11.80;;;4.15;;
29538;SDS011;16482;51.046;4.498;2023-04-25T01:45:06;10.15;;;3.70;;
29538;SDS011;16482;51.046;4.498;2023-04-25T01:47:43;7.20;;;3.50;;
29538;SDS011;16482;51.046;4.498;2023-04-25T01:50:14;8.98;;;3.88;;
29538;SDS011;16482;51.046;4.498;2023-04-25T01:52:40;7.93;;;3.70;;
29538;SDS011;16482;51.046;4.498;2023-04-25T01:55:06;9.50;;;3.75;;
29538;SDS011;16482;51.046;4.498;2023-04-25T01:57:39;8.98;;;3.55;;
29538;SDS011;16482;51.046;4.498;2023-04-25T02:00:07;7.68;;;3.88;;
29538;SDS011;16482;51.046;4.498;2023-04-25T02:02:43;9.40;;;3.92;;
29538;SDS011;16482;51.046;4.498;2023-04-25T02:05:09;6.80;;;3.58;;
29538;SDS011;16482;51.046;4.498;2023-04-25T02:07:37;6.60;;;3.50;;
29538;SDS011;16482;51.046;4.498;2023-04-25T02:10:10;10.70;;;4.20;;
29538;SDS011;16482;51.046;4.498;2023-04-25T02:12:39;10.77;;;4.20;;
29538;SDS011;16482;51.046;4.498;2023-04-25T02:15:08;5.82;;;3.25;;
29538;SDS011;16482;51.046;4.498;2023-04-25T02:17:37;8.73;;;3.63;;
29538;SDS011;16482;51.046;4.498;2023-04-25T02:20:13;9.70;;;3.92;;
29538;SDS011;16482;51.046;4.498;2023-04-25T02:22:39;8.20;;;3.30;;
29538;SDS011;16482;51.046;4.498;2023-04-25T02:25:14;7.90;;;4.05;;
29538;SDS011;16482;51.046;4.498;2023-04-25T02:27:41;9.00;;;3.15;;
29538;SDS011;16482;51.046;4.498;2023-04-25T02:30:07;8.63;;;3.50;;
29538;SDS011;16482;51.046;4.498;2023-04-25T02:32:43;7.47;;;3.47;;
29538;SDS011;16482;51.046;4.498;2023-04-25T02:35:09;9.25;;;3.47;;
29538;SDS011;16482;51.046;4.498;2023-04-25T02:37:44;9.73;;;3.72;;
29538;SDS011;16482;51.046;4.498;2023-04-25T02:40:10;11.60;;;4.10;;
29538;SDS011;16482;51.046;4.498;2023-04-25T02:42:39;10.50;;;3.80;;
29538;SDS011;16482;51.046;4.498;2023-04-25T02:45:07;7.30;;;3.83;;
29538;SDS011;16482;51.046;4.498;2023-04-25T02:47:38;12.20;;;3.60;;
29538;SDS011;16482;51.046;4.498;2023-04-25T02:50:07;10.05;;;3.30;;
29538;SDS011;16482;51.046;4.498;2023-04-25T02:52:36;9.50;;;3.75;;
29538;SDS011;16482;51.046;4.498;2023-04-25T02:55:10;9.10;;;3.95;;
29538;SDS011;16482;51.046;4.498;2023-04-25T02:57:37;6.68;;;3.25;;
29538;SDS011;16482;51.046;4.498;2023-04-25T03:00:06;10.07;;;3.08;;
29538;SDS011;16482;51.046;4.498;2023-04-25T03:02:39;10.20;;;3.60;;
29538;SDS011;16482;51.046;4.498;2023-04-25T03:05:14;9.65;;;3.95;;
29538;SDS011;16482;51.046;4.498;2023-04-25T03:07:41;10.93;;;3.70;;
29538;SDS011;16482;51.046;4.498;2023-04-25T03:10:08;7.57;;;3.60;;
29538;SDS011;16482;51.046;4.498;2023-04-25T03:12:44;7.40;;;3.08;;
29538;SDS011;16482;51.046;4.498;2023-04-25T03:15:10;9.43;;;3.22;;
29538;SDS011;16482;51.046;4.498;2023-04-25T03:17:43;8.30;;;3.20;;
29538;SDS011;16482;51.046;4.498;2023-04-25T03:20:09;8.88;;;3.47;;
29538;SDS011;16482;51.046;4.498;2023-04-25T03:22:39;7.80;;;3.30;;
29538;SDS011;16482;51.046;4.498;2023-04-25T03:25:07;7.10;;;3.05;;
29538;SDS011;16482;51.046;4.498;2023-04-25T03:27:42;7.47;;;3.20;;
29538;SDS011;16482;51.046;4.498;2023-04-25T03:30:08;6.03;;;2.88;;
29538;SDS011;16482;51.046;4.498;2023-04-25T03:32:38;6.97;;;3.33;;
29538;SDS011;16482;51.046;4.498;2023-04-25T03:35:06;6.97;;;3.40;;
29538;SDS011;16482;51.046;4.498;2023-04-25T03:37:37;6.05;;;2.83;;
29538;SDS011;16482;51.046;4.498;2023-04-25T03:40:08;9.60;;;3.30;;
29538;SDS011;16482;51.046;4.498;2023-04-25T03:42:43;7.38;;;3.28;;
29538;SDS011;16482;51.046;4.498;2023-04-25T03:45:09;6.53;;;2.80;;
29538;SDS011;16482;51.046;4.498;2023-04-25T03:47:44;6.65;;;2.88;;
29538;SDS011;16482;51.046;4.498;2023-04-25T03:50:10;6.05;;;3.15;;
29538;SDS011;16482;51.046;4.498;2023-04-25T03:52:36;7.25;;;2.95;;
29538;SDS011;16482;51.046;4.498;2023-04-25T03:55:19;8.23;;;3.25;;
29538;SDS011;16482;51.046;4.498;2023-04-25T03:57:45;6.53;;;3.00;;
29538;SDS011;16482;51.046;4.498;2023-04-25T04:00:12;5.85;;;2.90;;
29538;SDS011;16482;51.046;4.498;2023-04-25T04:02:40;6.22;;;2.83;;
29538;SDS011;16482;51.046;4.498;2023-04-25T04:05:09;6.95;;;3.00;;
29538;SDS011;16482;51.046;4.498;2023-04-25T04:07:38;6.57;;;2.83;;
29538;SDS011;16482;51.046;4.498;2023-04-25T04:10:11;6.20;;;3.05;;
29538;SDS011;16482;51.046;4.498;2023-04-25T04:12:37;6.90;;;3.03;;
29538;SDS011;16482;51.046;4.498;2023-04-25T04:15:12;4.68;;;2.60;;
29538;SDS011;16482;51.046;4.498;2023-04-25T04:17:38;5.80;;;2.60;;
29538;SDS011;16482;51.046;4.498;2023-04-25T04:20:08;5.60;;;2.83;;
29538;SDS011;16482;51.046;4.498;2023-04-25T04:22:38;6.60;;;3.17;;
29538;SDS011;16482;51.046;4.498;2023-04-25T04:25:11;6.35;;;2.70;;
29538;SDS011;16482;51.046;4.498;2023-04-25T04:27:39;8.30;;;3.13;;
29538;SDS011;16482;51.046;4.498;2023-04-25T04:30:08;7.68;;;3.30;;
29538;SDS011;16482;51.046;4.498;2023-04-25T04:32:37;7.45;;;2.90;;
29538;SDS011;16482;51.046;4.498;2023-04-25T04:35:12;7.10;;;2.78;;
29538;SDS011;16482;51.046;4.498;2023-04-25T04:37:38;5.63;;;2.63;;
29538;SDS011;16482;51.046;4.498;2023-04-25T04:40:14;6.72;;;3.25;;
29538;SDS011;16482;51.046;4.498;2023-04-25T04:42:43;6.40;;;2.88;;
29538;SDS011;16482;51.046;4.498;2023-04-25T04:45:13;7.07;;;3.10;;
29538;SDS011;16482;51.046;4.498;2023-04-25T04:47:39;7.05;;;2.78;;
29538;SDS011;16482;51.046;4.498;2023-04-25T04:50:09;6.85;;;3.10;;
29538;SDS011;16482;51.046;4.498;2023-04-25T04:52:43;6.82;;;3.10;;
29538;SDS011;16482;51.046;4.498;2023-04-25T04:55:09;5.75;;;2.75;;
29538;SDS011;16482;51.046;4.498;2023-04-25T04:57:43;7.03;;;2.70;;
29538;SDS011;16482;51.046;4.498;2023-04-25T05:00:10;7.10;;;3.10;;
29538;SDS011;16482;51.046;4.498;2023-04-25T05:02:39;6.18;;;2.60;;
29538;SDS011;16482;51.046;4.498;2023-04-25T05:05:08;6.32;;;2.90;;
29538;SDS011;16482;51.046;4.498;2023-04-25T05:07:41;5.03;;;2.50;;
29538;SDS011;16482;51.046;4.498;2023-04-25T05:10:10;6.07;;;2.90;;
29538;SDS011;16482;51.046;4.498;2023-04-25T05:12:38;6.15;;;3.03;;
29538;SDS011;16482;51.046;4.498;2023-04-25T05:15:07;6.47;;;2.63;;
29538;SDS011;16482;51.046;4.498;2023-04-25T05:17:33;5.80;;;2.88;;
29538;SDS011;16482;51.046;4.498;2023-04-25T05:20:08;6.70;;;3.30;;
29538;SDS011;16482;51.046;4.498;2023-04-25T05:22:43;6.30;;;2.90;;
29538;SDS011;16482;51.046;4.498;2023-04-25T05:25:09;6.75;;;3.10;;
29538;SDS011;16482;51.046;4.498;2023-04-25T05:27:38;4.25;;;2.40;;
29538;SDS011;16482;51.046;4.498;2023-04-25T05:30:14;5.45;;;2.80;;
29538;SDS011;16482;51.046;4.498;2023-04-25T05:32:40;6.15;;;2.47;;
29538;SDS011;16482;51.046;4.498;2023-04-25T05:35:08;4.93;;;2.55;;
29538;SDS011;16482;51.046;4.498;2023-04-25T05:37:42;5.90;;;2.67;;
29538;SDS011;16482;51.046;4.498;2023-04-25T05:40:08;4.57;;;2.50;;
29538;SDS011;16482;51.046;4.498;2023-04-25T05:42:37;6.15;;;3.22;;
29538;SDS011;16482;51.046;4.498;2023-04-25T05:45:10;6.03;;;2.58;;
29538;SDS011;16482;51.046;4.498;2023-04-25T05:47:39;4.90;;;2.55;;
29538;SDS011;16482;51.046;4.498;2023-04-25T05:50:14;6.80;;;2.50;;
29538;SDS011;16482;51.046;4.498;2023-04-25T05:52:40;6.75;;;2.75;;
29538;SDS011;16482;51.046;4.498;2023-04-25T05:55:09;5.95;;;2.70;;
29538;SDS011;16482;51.046;4.498;2023-04-25T05:57:38;6.18;;;2.60;;
29538;SDS011;16482;51.046;4.498;2023-04-25T06:00:09;6.03;;;2.85;;
29538;SDS011;16482;51.046;4.498;2023-04-25T06:02:35;3.83;;;2.50;;
29538;SDS011;16482;51.046;4.498;2023-04-25T06:05:09;5.22;;;2.72;;
29538;SDS011;16482;51.046;4.498;2023-04-25T06:07:42;7.22;;;2.97;;
29538;SDS011;16482;51.046;4.498;2023-04-25T06:10:11;4.97;;;2.58;;
29538;SDS011;16482;51.046;4.498;2023-04-25T06:12:37;4.97;;;2.50;;
29538;SDS011;16482;51.046;4.498;2023-04-25T06:15:12;5.10;;;2.70;;
29538;SDS011;16482;51.046;4.498;2023-04-25T06:17:38;4.38;;;2.20;;
29538;SDS011;16482;51.046;4.498;2023-04-25T06:20:09;7.93;;;2.97;;
29538;SDS011;16482;51.046;4.498;2023-04-25T06:22:38;6.20;;;2.60;;
29538;SDS011;16482;51.046;4.498;2023-04-25T06:25:07;7.13;;;2.97;;
29538;SDS011;16482;51.046;4.498;2023-04-25T06:27:41;8.57;;;2.90;;
29538;SDS011;16482;51.046;4.498;2023-04-25T06:30:09;4.70;;;2.67;;
29538;SDS011;16482;51.046;4.498;2023-04-25T06:32:37;4.82;;;2.60;;
29538;SDS011;16482;51.046;4.498;2023-04-25T06:35:11;5.63;;;2.67;;
29538;SDS011;16482;51.046;4.498;2023-04-25T06:37:38;4.75;;;2.40;;
29538;SDS011;16482;51.046;4.498;2023-04-25T06:40:13;5.18;;;2.50;;
29538;SDS011;16482;51.046;4.498;2023-04-25T06:42:38;8.02;;;2.80;;
29538;SDS011;16482;51.046;4.498;2023-04-25T06:45:13;5.72;;;2.63;;
29538;SDS011;16482;51.046;4.498;2023-04-25T06:47:39;6.97;;;2.70;;
29538;SDS011;16482;51.046;4.498;2023-04-25T06:50:08;4.65;;;2.50;;
29538;SDS011;16482;51.046;4.498;2023-04-25T06:52:38;5.55;;;2.65;;
29538;SDS011;16482;51.046;4.498;2023-04-25T06:55:13;6.97;;;2.80;;
29538;SDS011;16482;51.046;4.498;2023-04-25T06:57:39;4.65;;;2.42;;
29538;SDS011;16482;51.046;4.498;2023-04-25T07:00:07;5.18;;;2.47;;
29538;SDS011;16482;51.046;4.498;2023-04-25T07:02:37;6.32;;;2.60;;
29538;SDS011;16482;51.046;4.498;2023-04-25T07:05:08;6.80;;;2.65;;
29538;SDS011;16482;51.046;4.498;2023-04-25T07:07:41;8.82;;;2.85;;
29538;SDS011;16482;51.046;4.498;2023-04-25T07:10:10;6.65;;;2.45;;
29538;SDS011;16482;51.046;4.498;2023-04-25T07:12:39;7.07;;;2.78;;
29538;SDS011;16482;51.046;4.498;2023-04-25T07:15:08;6.72;;;2.70;;
29538;SDS011;16482;51.046;4.498;2023-04-25T07:17:39;5.97;;;2.67;;
29538;SDS011;16482;51.046;4.498;2023-04-25T07:20:08;6.22;;;2.85;;
29538;SDS011;16482;51.046;4.498;2023-04-25T07:22:37;6.13;;;2.58;;
29538;SDS011;16482;51.046;4.498;2023-04-25T07:25:08;5.85;;;2.40;;
29538;SDS011;16482;51.046;4.498;2023-04-25T07:27:37;5.25;;;2.38;;
29538;SDS011;16482;51.046;4.498;2023-04-25T07:30:08;5.65;;;2.55;;
29538;SDS011;16482;51.046;4.498;2023-04-25T07:32:44;5.40;;;2.72;;
29538;SDS011;16482;51.046;4.498;2023-04-25T07:35:10;7.65;;;2.75;;
29538;SDS011;16482;51.046;4.498;2023-04-25T07:37:39;8.45;;;2.60;;
29538;SDS011;16482;51.046;4.498;2023-04-25T07:40:08;6.07;;;2.78;;
29538;SDS011;16482;51.046;4.498;2023-04-25T07:42:39;3.70;;;2.10;;
29538;SDS011;16482;51.046;4.498;2023-04-25T07:45:14;5.38;;;2.50;;
29538;SDS011;16482;51.046;4.498;2023-04-25T07:47:41;7.05;;;2.45;;
29538;SDS011;16482;51.046;4.498;2023-04-25T07:50:09;5.18;;;2.45;;
29538;SDS011;16482;51.046;4.498;2023-04-25T07:52:43;4.80;;;2.20;;
29538;SDS011;16482;51.046;4.498;2023-04-25T07:55:09;5.72;;;2.53;;
29538;SDS011;16482;51.046;4.498;2023-04-25T07:57:44;5.22;;;2.60;;
29538;SDS011;16482;51.046;4.498;2023-04-25T08:00:10;5.80;;;2.55;;
29538;SDS011;16482;51.046;4.498;2023-04-25T08:08:31;6.80;;;2.47;;
29538;SDS011;16482;51.046;4.498;2023-04-25T08:10:57;6.00;;;2.40;;
29538;SDS011;16482;51.046;4.498;2023-04-25T08:13:26;4.53;;;2.30;;
29538;SDS011;16482;51.046;4.498;2023-04-25T08:16:01;7.22;;;1.85;;
29538;SDS011;16482;51.046;4.498;2023-04-25T08:18:27;6.20;;;2.55;;
29538;SDS011;16482;51.046;4.498;2023-04-25T08:21:01;5.63;;;2.45;;
29538;SDS011;16482;51.046;4.498;2023-04-25T08:23:29;4.43;;;2.00;;
29538;SDS011;16482;51.046;4.498;2023-04-25T08:25:58;7.50;;;2.33;;
29538;SDS011;16482;51.046;4.498;2023-04-25T08:28:32;5.75;;;2.25;;
29538;SDS011;16482;51.046;4.498;2023-04-25T08:30:58;7.18;;;2.50;;
29538;SDS011;16482;51.046;4.498;2023-04-25T08:33:31;5.88;;;2.17;;
29538;SDS011;16482;51.046;4.498;2023-04-25T08:35:57;5.85;;;2.33;;
29538;SDS011;16482;51.046;4.498;2023-04-25T08:38:29;7.13;;;2.17;;
29538;SDS011;16482;51.046;4.498;2023-04-25T08:40:59;7.03;;;2.22;;
29538;SDS011;16482;51.046;4.498;2023-04-25T08:43:29;7.00;;;2.30;;
29538;SDS011;16482;51.046;4.498;2023-04-25T08:45:58;7.85;;;2.60;;
29538;SDS011;16482;51.046;4.498;2023-04-25T08:48:34;6.38;;;2.42;;
29538;SDS011;16482;51.046;4.498;2023-04-25T08:51:01;6.38;;;2.55;;
29538;SDS011;16482;51.046;4.498;2023-04-25T08:53:29;6.60;;;2.42;;
29538;SDS011;16482;51.046;4.498;2023-04-25T08:55:57;5.20;;;2.20;;
29538;SDS011;16482;51.046;4.498;2023-04-25T08:58:29;6.10;;;2.53;;
29538;SDS011;16482;51.046;4.498;2023-04-25T09:01:00;5.03;;;1.98;;
29538;SDS011;16482;51.046;4.498;2023-04-25T09:03:33;4.63;;;2.05;;
29538;SDS011;16482;51.046;4.498;2023-04-25T09:06:00;5.43;;;2.17;;
29538;SDS011;16482;51.046;4.498;2023-04-25T09:08:29;3.92;;;1.92;;
29538;SDS011;16482;51.046;4.498;2023-04-25T09:10:55;4.10;;;1.92;;
29538;SDS011;16482;51.046;4.498;2023-04-25T09:13:31;3.85;;;1.92;;
29538;SDS011;16482;51.046;4.498;2023-04-25T09:16:00;4.38;;;1.88;;
29538;SDS011;16482;51.046;4.498;2023-04-25T09:18:31;5.43;;;1.95;;
29538;SDS011;16482;51.046;4.498;2023-04-25T09:21:08;4.25;;;1.92;;
29538;SDS011;16482;51.046;4.498;2023-04-25T09:23:39;4.90;;;2.00;;
29538;SDS011;16482;51.046;4.498;2023-04-25T09:26:06;4.13;;;1.73;;
29538;SDS011;16482;51.046;4.498;2023-04-25T09:28:34;4.82;;;2.05;;
29538;SDS011;16482;51.046;4.498;2023-04-25T09:31:00;3.63;;;1.58;;
29538;SDS011;16482;51.046;4.498;2023-04-25T09:33:30;5.03;;;2.03;;
29538;SDS011;16482;51.046;4.498;2023-04-25T09:36:01;6.13;;;1.77;;
29538;SDS011;16482;51.046;4.498;2023-04-25T09:38:29;4.13;;;1.75;;
29538;SDS011;16482;51.046;4.498;2023-04-25T09:41:04;4.47;;;2.00;;
29538;SDS011;16482;51.046;4.498;2023-04-25T09:43:30;6.90;;;1.77;;
29538;SDS011;16482;51.046;4.498;2023-04-25T09:45:58;5.78;;;2.00;;
29538;SDS011;16482;51.046;4.498;2023-04-25T09:48:28;3.50;;;1.60;;
29538;SDS011;16482;51.046;4.498;2023-04-25T09:51:04;8.05;;;1.80;;
29538;SDS011;16482;51.046;4.498;2023-04-25T09:53:31;6.25;;;1.92;;
29538;SDS011;16482;51.046;4.498;2023-04-25T09:56:03;4.35;;;1.80;;
29538;SDS011;16482;51.046;4.498;2023-04-25T09:58:30;5.38;;;1.80;;
29538;SDS011;16482;51.046;4.498;2023-04-25T10:01:00;3.97;;;1.73;;
29538;SDS011;16482;51.046;4.498;2023-04-25T10:06:00;3.65;;;1.67;;
29538;SDS011;16482;51.046;4.498;2023-04-25T10:08:34;3.88;;;1.80;;
29538;SDS011;16482;51.046;4.498;2023-04-25T10:11:01;6.57;;;2.10;;
29538;SDS011;16482;51.046;4.498;2023-04-25T10:13:33;3.67;;;1.67;;
29538;SDS011;16482;51.046;4.498;2023-04-25T10:16:03;2.80;;;1.42;;
29538;SDS011;16482;51.046;4.498;2023-04-25T10:18:30;4.57;;;1.60;;
29538;SDS011;16482;51.046;4.498;2023-04-25T10:21:01;4.38;;;1.75;;
29538;SDS011;16482;51.046;4.498;2023-04-25T10:23:32;6.70;;;1.65;;
29538;SDS011;16482;51.046;4.498;2023-04-25T10:26:02;3.60;;;1.60;;
29538;SDS011;16482;51.046;4.498;2023-04-25T10:28:30;7.82;;;1.92;;
29538;SDS011;16482;51.046;4.498;2023-04-25T10:31:20;4.13;;;1.75;;
29538;SDS011;16482;51.046;4.498;2023-04-25T10:33:46;2.88;;;1.38;;
29538;SDS011;16482;51.046;4.498;2023-04-25T10:36:18;5.00;;;1.63;;
29538;SDS011;16482;51.046;4.498;2023-04-25T10:38:46;3.60;;;1.65;;
29538;SDS011;16482;51.046;4.498;2023-04-25T10:41:15;4.38;;;1.60;;
29538;SDS011;16482;51.046;4.498;2023-04-25T10:43:44;4.70;;;1.70;;
29538;SDS011;16482;51.046;4.498;2023-04-25T10:48:59;4.40;;;1.73;;
29538;SDS011;16482;51.046;4.498;2023-04-25T10:51:27;3.53;;;1.67;;
29538;SDS011;16482;51.046;4.498;2023-04-25T10:56:36;2.90;;;1.38;;
29538;SDS011;16482;51.046;4.498;2023-04-25T10:59:11;2.70;;;1.48;;
29538;SDS011;16482;51.046;4.498;2023-04-25T11:01:55;5.60;;;1.60;;
29538;SDS011;16482;51.046;4.498;2023-04-25T11:04:22;4.45;;;1.67;;
29538;SDS011;16482;51.046;4.498;2023-04-25T11:09:40;4.35;;;1.80;;
29538;SDS011;16482;51.046;4.498;2023-04-25T11:12:07;2.95;;;1.40;;
29538;SDS011;16482;51.046;4.498;2023-04-25T11:14:36;4.35;;;1.65;;
29538;SDS011;16482;51.046;4.498;2023-04-25T11:17:02;3.05;;;1.60;;
29538;SDS011;16482;51.046;4.498;2023-04-25T11:19:28;5.25;;;1.80;;
29538;SDS011;16482;51.046;4.498;2023-04-25T11:21:55;4.07;;;1.60;;
29538;SDS011;16482;51.046;4.498;2023-04-25T11:24:32;4.05;;;1.70;;
29538;SDS011;16482;51.046;4.498;2023-04-25T11:27:02;5.28;;;1.40;;
29538;SDS011;16482;51.046;4.498;2023-04-25T11:29:32;4.00;;;1.73;;
29538;SDS011;16482;51.046;4.498;2023-04-25T11:31:59;3.38;;;1.48;;
29538;SDS011;16482;51.046;4.498;2023-04-25T11:34:26;7.47;;;1.63;;
29538;SDS011;16482;51.046;4.498;2023-04-25T11:36:55;5.50;;;1.58;;
29538;SDS011;16482;51.046;4.498;2023-04-25T11:39:23;4.65;;;1.95;;
29538;SDS011;16482;51.046;4.498;2023-04-25T11:41:50;5.25;;;1.63;;
29538;SDS011;16482;51.046;4.498;2023-04-25T11:44:19;3.45;;;1.50;;
29538;SDS011;16482;51.046;4.498;2023-04-25T11:46:49;4.60;;;1.88;;
29538;SDS011;16482;51.046;4.498;2023-04-25T11:49:18;3.90;;;1.77;;
29538;SDS011;16482;51.046;4.498;2023-04-25T11:51:51;5.78;;;1.65;;
29538;SDS011;16482;51.046;4.498;2023-04-25T11:54:17;4.38;;;1.92;;
29538;SDS011;16482;51.046;4.498;2023-04-25T11:56:51;3.80;;;1.63;;
29538;SDS011;16482;51.046;4.498;2023-04-25T11:59:19;3.22;;;1.40;;
29538;SDS011;16482;51.046;4.498;2023-04-25T12:01:50;4.80;;;1.80;;
29538;SDS011;16482;51.046;4.498;2023-04-25T12:04:25;4.43;;;1.55;;
29538;SDS011;16482;51.046;4.498;2023-04-25T12:06:52;4.32;;;1.67;;
29538;SDS011;16482;51.046;4.498;2023-04-25T12:09:20;3.08;;;1.58;;
29538;SDS011;16482;51.046;4.498;2023-04-25T12:11:53;2.53;;;1.25;;
29538;SDS011;16482;51.046;4.498;2023-04-25T12:14:23;2.75;;;1.30;;
29538;SDS011;16482;51.046;4.498;2023-04-25T12:16:52;2.97;;;1.40;;
29538;SDS011;16482;51.046;4.498;2023-04-25T12:19:20;3.40;;;1.40;;
29538;SDS011;16482;51.046;4.498;2023-04-25T12:21:49;2.55;;;1.25;;
29538;SDS011;16482;51.046;4.498;2023-04-25T12:24:23;2.63;;;1.50;;
29538;SDS011;16482;51.046;4.498;2023-04-25T12:27:03;3.07;;;1.40;;
29538;SDS011;16482;51.046;4.498;2023-04-25T12:29:31;2.75;;;1.40;;
29538;SDS011;16482;51.046;4.498;2023-04-25T12:31:59;3.83;;;1.50;;
29538;SDS011;16482;51.046;4.498;2023-04-25T12:34:27;4.10;;;1.40;;
29538;SDS011;16482;51.046;4.498;2023-04-25T12:36:53;2.92;;;1.40;;
29538;SDS011;16482;51.046;4.498;2023-04-25T12:39:21;2.50;;;1.30;;
29538;SDS011;16482;51.046;4.498;2023-04-25T12:41:48;4.20;;;1.65;;
29538;SDS011;16482;51.046;4.498;2023-04-25T12:44:24;2.78;;;1.30;;
29538;SDS011;16482;51.046;4.498;2023-04-25T12:46:50;3.97;;;1.35;;
29538;SDS011;16482;51.046;4.498;2023-04-25T12:49:23;4.68;;;1.30;;
29538;SDS011;16482;51.046;4.498;2023-04-25T12:51:50;4.07;;;1.60;;
29538;SDS011;16482;51.046;4.498;2023-04-25T12:54:19;3.80;;;1.58;;
29538;SDS011;16482;51.046;4.498;2023-04-25T12:56:48;2.50;;;1.00;;
29538;SDS011;16482;51.046;4.498;2023-04-25T12:59:22;3.33;;;1.48;;
29538;SDS011;16482;51.046;4.498;2023-04-25T13:01:48;3.47;;;1.25;;
29538;SDS011;16482;51.046;4.498;2023-04-25T13:04:14;2.17;;;1.30;;
29538;SDS011;16482;51.046;4.498;2023-04-25T13:06:51;3.17;;;1.30;;
29538;SDS011;16482;51.046;4.498;2023-04-25T13:09:20;3.47;;;1.17;;
29538;SDS011;16482;51.046;4.498;2023-04-25T13:11:54;3.42;;;1.35;;
29538;SDS011;16482;51.046;4.498;2023-04-25T13:14:20;2.47;;;1.35;;
29538;SDS011;16482;51.046;4.498;2023-04-25T13:16:49;2.65;;;1.35;;
29538;SDS011;16482;51.046;4.498;2023-04-25T13:19:22;3.63;;;1.27;;
29538;SDS011;16482;51.046;4.498;2023-04-25T13:21:48;3.60;;;1.02;;
29538;SDS011;16482;51.046;4.498;2023-04-25T13:24:24;3.97;;;1.58;;
29538;SDS011;16482;51.046;4.498;2023-04-25T13:26:50;4.25;;;1.48;;
29538;SDS011;16482;51.046;4.498;2023-04-25T13:29:25;3.17;;;1.10;;
29538;SDS011;16482;51.046;4.498;2023-04-25T13:31:51;3.50;;;1.27;;
29538;SDS011;16482;51.046;4.498;2023-04-25T13:34:19;4.00;;;1.20;;
29538;SDS011;16482;51.046;4.498;2023-04-25T13:36:54;3.13;;;1.30;;
29538;SDS011;16482;51.046;4.498;2023-04-25T13:39:20;3.20;;;1.27;;
29538;SDS011;16482;51.046;4.498;2023-04-25T13:41:55;3.15;;;1.25;;
29538;SDS011;16482;51.046;4.498;2023-04-25T13:44:21;3.95;;;1.38;;
29538;SDS011;16482;51.046;4.498;2023-04-25T13:46:50;2.63;;;1.30;;
29538;SDS011;16482;51.046;4.498;2023-04-25T13:49:19;4.03;;;1.45;;
29538;SDS011;16482;51.046;4.498;2023-04-25T13:51:52;2.65;;;1.10;;
29538;SDS011;16482;51.046;4.498;2023-04-25T13:54:18;3.30;;;1.35;;
29538;SDS011;16482;51.046;4.498;2023-04-25T13:56:44;2.80;;;1.17;;
29538;SDS011;16482;51.046;4.498;2023-04-25T14:01:49;3.35;;;1.38;;
29538;SDS011;16482;51.046;4.498;2023-04-25T14:04:24;2.05;;;1.17;;
29538;SDS011;16482;51.046;4.498;2023-04-25T14:06:51;4.43;;;1.42;;
29538;SDS011;16482;51.046;4.498;2023-04-25T14:09:19;2.65;;;1.20;;
29538;SDS011;16482;51.046;4.498;2023-04-25T14:11:50;2.72;;;1.17;;
29538;SDS011;16482;51.046;4.498;2023-04-25T14:14:20;3.10;;;1.45;;
29538;SDS011;16482;51.046;4.498;2023-04-25T14:16:49;4.28;;;1.30;;
29538;SDS011;16482;51.046;4.498;2023-04-25T14:19:20;2.65;;;1.10;;
29538;SDS011;16482;51.046;4.498;2023-04-25T14:21:49;3.05;;;1.27;;
29538;SDS011;16482;51.046;4.498;2023-04-25T14:24:22;4.00;;;1.30;;
29538;SDS011;16482;51.046;4.498;2023-04-25T14:26:51;3.25;;;1.38;;
29538;SDS011;16482;51.046;4.498;2023-04-25T14:29:26;4.70;;;1.20;;
29538;SDS011;16482;51.046;4.498;2023-04-25T14:31:52;3.97;;;1.20;;
29538;SDS011;16482;51.046;4.498;2023-04-25T14:34:21;2.72;;;1.17;;
29538;SDS011;16482;51.046;4.498;2023-04-25T14:36:47;3.55;;;1.13;;
29538;SDS011;16482;51.046;4.498;2023-04-25T14:39:21;4.95;;;1.30;;
29538;SDS011;16482;51.046;4.498;2023-04-25T14:41:49;3.50;;;1.17;;
29538;SDS011;16482;51.046;4.498;2023-04-25T14:44:24;5.05;;;1.10;;
29538;SDS011;16482;51.046;4.498;2023-04-25T14:46:50;4.40;;;1.50;;
29538;SDS011;16482;51.046;4.498;2023-04-25T14:49:19;2.00;;;0.93;;
29538;SDS011;16482;51.046;4.498;2023-04-25T14:51:48;4.22;;;1.17;;
29538;SDS011;16482;51.046;4.498;2023-04-25T14:54:17;3.70;;;1.05;;
29538;SDS011;16482;51.046;4.498;2023-04-25T14:56:43;2.53;;;1.20;;
29538;SDS011;16482;51.046;4.498;2023-04-25T14:59:18;4.75;;;1.10;;
29538;SDS011;16482;51.046;4.498;2023-04-25T15:01:49;3.00;;;1.30;;
29538;SDS011;16482;51.046;4.498;2023-04-25T15:04:19;6.45;;;1.38;;
29538;SDS011;16482;51.046;4.498;2023-04-25T15:06:45;2.95;;;1.00;;
29538;SDS011;16482;51.046;4.498;2023-04-25T15:09:18;2.25;;;0.98;;
29538;SDS011;16482;51.046;4.498;2023-04-25T15:11:49;2.60;;;1.10;;
29538;SDS011;16482;51.046;4.498;2023-04-25T15:14:20;3.03;;;1.10;;
29538;SDS011;16482;51.046;4.498;2023-04-25T15:16:53;3.55;;;1.00;;
29538;SDS011;16482;51.046;4.498;2023-04-25T15:19:19;1.73;;;1.10;;
29538;SDS011;16482;51.046;4.498;2023-04-25T15:21:48;3.58;;;1.27;;